sensor_id;sensor_type;location;lat;lon;timestamp;P1;durP1;ratioP1;P2;durP2;ratioP2
70806;SDS011;58882;52.170;5.386;2023-02-22T00:01:44;23.25;;;11.23;;
70806;SDS011;58882;52.170;5.386;2023-02-22T00:04:49;22.45;;;10.77;;
70806;SDS011;58882;52.170;5.386;2023-02-22T00:10:16;23.92;;;11.20;;
70806;SDS011;58882;52.170;5.386;2023-02-22T00:12:59;19.30;;;9.95;;
70806;SDS011;58882;52.170;5.386;2023-02-22T00:15:46;23.10;;;10.60;;
70806;SDS011;58882;52.170;5.386;2023-02-22T00:21:21;22.65;;;10.55;;
70806;SDS011;58882;52.170;5.386;2023-02-22T00:24:02;22.23;;;10.43;;
70806;SDS011;58882;52.170;5.386;2023-02-22T00:27:08;20.20;;;9.57;;
70806;SDS011;58882;52.170;5.386;2023-02-22T00:29:45;20.83;;;9.75;;
70806;SDS011;58882;52.170;5.386;2023-02-22T00:32:41;20.92;;;9.98;;
70806;SDS011;58882;52.170;5.386;2023-02-22T00:38:08;20.30;;;9.18;;
70806;SDS011;58882;52.170;5.386;2023-02-22T00:40:55;21.05;;;9.60;;
70806;SDS011;58882;52.170;5.386;2023-02-22T00:43:28;19.27;;;9.38;;
70806;SDS011;58882;52.170;5.386;2023-02-22T00:46:24;21.52;;;9.02;;
70806;SDS011;58882;52.170;5.386;2023-02-22T00:48:57;19.20;;;8.93;;
70806;SDS011;58882;52.170;5.386;2023-02-22T00:54:31;19.10;;;8.85;;
70806;SDS011;58882;52.170;5.386;2023-02-22T00:57:18;20.92;;;8.93;;
70806;SDS011;58882;52.170;5.386;2023-02-22T01:00:00;17.25;;;8.40;;
70806;SDS011;58882;52.170;5.386;2023-02-22T01:02:57;18.77;;;9.00;;
70806;SDS011;58882;52.170;5.386;2023-02-22T01:05:33;19.42;;;9.60;;
70806;SDS011;58882;52.170;5.386;2023-02-22T01:08:27;18.35;;;8.85;;
70806;SDS011;58882;52.170;5.386;2023-02-22T01:13:55;20.60;;;8.57;;
70806;SDS011;58882;52.170;5.386;2023-02-22T01:16:29;17.80;;;8.57;;
70806;SDS011;58882;52.170;5.386;2023-02-22T01:19:23;17.02;;;8.27;;
70806;SDS011;58882;52.170;5.386;2023-02-22T01:21:56;17.05;;;8.48;;
70806;SDS011;58882;52.170;5.386;2023-02-22T01:24:50;17.85;;;8.23;;
70806;SDS011;58882;52.170;5.386;2023-02-22T01:27:23;16.90;;;9.02;;
70806;SDS011;58882;52.170;5.386;2023-02-22T01:32:55;16.42;;;8.05;;
70806;SDS011;58882;52.170;5.386;2023-02-22T01:35:50;18.17;;;8.32;;
70806;SDS011;58882;52.170;5.386;2023-02-22T01:38:45;15.95;;;7.63;;
70806;SDS011;58882;52.170;5.386;2023-02-22T01:41:26;20.88;;;8.60;;
70806;SDS011;58882;52.170;5.386;2023-02-22T01:44:24;18.13;;;8.35;;
70806;SDS011;58882;52.170;5.386;2023-02-22T01:47:07;22.65;;;8.57;;
70806;SDS011;58882;52.170;5.386;2023-02-22T01:49:54;17.40;;;8.30;;
70806;SDS011;58882;52.170;5.386;2023-02-22T01:52:35;16.77;;;7.75;;
70806;SDS011;58882;52.170;5.386;2023-02-22T01:55:31;18.63;;;8.38;;
70806;SDS011;58882;52.170;5.386;2023-02-22T01:58:06;16.48;;;7.80;;
70806;SDS011;58882;52.170;5.386;2023-02-22T02:01:01;17.20;;;8.05;;
70806;SDS011;58882;52.170;5.386;2023-02-22T02:03:35;16.95;;;8.38;;
70806;SDS011;58882;52.170;5.386;2023-02-22T02:06:32;18.52;;;8.60;;
70806;SDS011;58882;52.170;5.386;2023-02-22T02:09:13;17.25;;;7.60;;
70806;SDS011;58882;52.170;5.386;2023-02-22T02:12:16;17.15;;;7.88;;
70806;SDS011;58882;52.170;5.386;2023-02-22T02:14:51;16.02;;;8.00;;
70806;SDS011;58882;52.170;5.386;2023-02-22T02:17:47;19.25;;;8.65;;
70806;SDS011;58882;52.170;5.386;2023-02-22T02:33:21;17.48;;;8.98;;
70806;SDS011;58882;52.170;5.386;2023-02-22T02:42:12;17.30;;;8.23;;
70806;SDS011;58882;52.170;5.386;2023-02-22T02:44:57;21.95;;;8.95;;
70806;SDS011;58882;52.170;5.386;2023-02-22T02:47:51;17.35;;;8.70;;
70806;SDS011;58882;52.170;5.386;2023-02-22T02:50:38;16.65;;;8.40;;
70806;SDS011;58882;52.170;5.386;2023-02-22T02:53:31;18.35;;;9.23;;
70806;SDS011;58882;52.170;5.386;2023-02-22T02:56:14;18.73;;;9.10;;
70806;SDS011;58882;52.170;5.386;2023-02-22T02:59:02;18.67;;;8.90;;
70806;SDS011;58882;52.170;5.386;2023-02-22T03:10:54;19.95;;;9.70;;
70806;SDS011;58882;52.170;5.386;2023-02-22T03:17:21;18.40;;;9.25;;
70806;SDS011;58882;52.170;5.386;2023-02-22T03:20:10;18.88;;;8.90;;
70806;SDS011;58882;52.170;5.386;2023-02-22T03:23:16;19.52;;;9.43;;
70806;SDS011;58882;52.170;5.386;2023-02-22T03:26:07;18.55;;;9.15;;
70806;SDS011;58882;52.170;5.386;2023-02-22T03:29:02;17.45;;;8.85;;
70806;SDS011;58882;52.170;5.386;2023-02-22T03:31:55;20.00;;;10.05;;
70806;SDS011;58882;52.170;5.386;2023-02-22T03:34:45;20.75;;;10.07;;
70806;SDS011;58882;52.170;5.386;2023-02-22T03:37:35;20.58;;;9.98;;
70806;SDS011;58882;52.170;5.386;2023-02-22T03:40:38;20.40;;;10.15;;
70806;SDS011;58882;52.170;5.386;2023-02-22T03:46:39;21.80;;;10.25;;
70806;SDS011;58882;52.170;5.386;2023-02-22T03:49:31;21.55;;;10.45;;
70806;SDS011;58882;52.170;5.386;2023-02-22T03:52:33;22.65;;;10.00;;
70806;SDS011;58882;52.170;5.386;2023-02-22T03:55:11;21.40;;;9.90;;
70806;SDS011;58882;52.170;5.386;2023-02-22T03:58:08;23.08;;;11.25;;
70806;SDS011;58882;52.170;5.386;2023-02-22T04:00:44;23.50;;;10.88;;
70806;SDS011;58882;52.170;5.386;2023-02-22T04:03:39;20.77;;;10.23;;
70806;SDS011;58882;52.170;5.386;2023-02-22T04:06:14;22.90;;;10.25;;
70806;SDS011;58882;52.170;5.386;2023-02-22T04:09:08;23.88;;;11.25;;
70806;SDS011;58882;52.170;5.386;2023-02-22T04:11:48;23.67;;;11.63;;
70806;SDS011;58882;52.170;5.386;2023-02-22T04:14:56;20.30;;;9.98;;
70806;SDS011;58882;52.170;5.386;2023-02-22T04:17:29;25.55;;;11.20;;
70806;SDS011;58882;52.170;5.386;2023-02-22T04:20:23;22.95;;;10.40;;
70806;SDS011;58882;52.170;5.386;2023-02-22T04:23:09;22.83;;;10.50;;
70806;SDS011;58882;52.170;5.386;2023-02-22T04:26:03;22.70;;;10.85;;
70806;SDS011;58882;52.170;5.386;2023-02-22T04:28:49;20.92;;;10.10;;
70806;SDS011;58882;52.170;5.386;2023-02-22T04:31:42;26.63;;;12.05;;
70806;SDS011;58882;52.170;5.386;2023-02-22T04:34:22;25.08;;;11.55;;
70806;SDS011;58882;52.170;5.386;2023-02-22T04:39:51;26.30;;;12.48;;
70806;SDS011;58882;52.170;5.386;2023-02-22T04:42:44;26.48;;;12.35;;
70806;SDS011;58882;52.170;5.386;2023-02-22T04:45:17;24.70;;;11.77;;
70806;SDS011;58882;52.170;5.386;2023-02-22T04:48:12;26.83;;;12.18;;
70806;SDS011;58882;52.170;5.386;2023-02-22T04:50:45;23.83;;;10.52;;
70806;SDS011;58882;52.170;5.386;2023-02-22T04:53:40;25.17;;;11.57;;
70806;SDS011;58882;52.170;5.386;2023-02-22T04:56:15;28.05;;;11.68;;
70806;SDS011;58882;52.170;5.386;2023-02-22T04:59:10;27.17;;;12.00;;
70806;SDS011;58882;52.170;5.386;2023-02-22T05:01:45;26.83;;;11.57;;
70806;SDS011;58882;52.170;5.386;2023-02-22T05:04:39;24.05;;;11.43;;
70806;SDS011;58882;52.170;5.386;2023-02-22T05:07:12;27.13;;;11.63;;
70806;SDS011;58882;52.170;5.386;2023-02-22T05:10:06;26.55;;;12.02;;
70806;SDS011;58882;52.170;5.386;2023-02-22T05:12:47;27.90;;;12.50;;
70806;SDS011;58882;52.170;5.386;2023-02-22T05:15:34;27.65;;;12.57;;
70806;SDS011;58882;52.170;5.386;2023-02-22T05:18:07;27.35;;;11.52;;
70806;SDS011;58882;52.170;5.386;2023-02-22T05:23:41;23.13;;;10.88;;
70806;SDS011;58882;52.170;5.386;2023-02-22T05:26:28;28.08;;;12.32;;
70806;SDS011;58882;52.170;5.386;2023-02-22T05:29:08;26.23;;;11.57;;
70806;SDS011;58882;52.170;5.386;2023-02-22T05:31:55;27.42;;;12.63;;
70806;SDS011;58882;52.170;5.386;2023-02-22T05:34:43;29.05;;;12.48;;
70806;SDS011;58882;52.170;5.386;2023-02-22T05:37:37;29.27;;;12.48;;
70806;SDS011;58882;52.170;5.386;2023-02-22T05:43:06;28.17;;;12.07;;
70806;SDS011;58882;52.170;5.386;2023-02-22T05:45:45;32.97;;;13.15;;
70806;SDS011;58882;52.170;5.386;2023-02-22T05:48:32;31.35;;;12.73;;
70806;SDS011;58882;52.170;5.386;2023-02-22T05:51:12;34.33;;;14.15;;
70806;SDS011;58882;52.170;5.386;2023-02-22T05:53:59;31.60;;;13.43;;
70806;SDS011;58882;52.170;5.386;2023-02-22T05:56:39;34.17;;;14.18;;
70806;SDS011;58882;52.170;5.386;2023-02-22T06:02:14;35.53;;;14.73;;
70806;SDS011;58882;52.170;5.386;2023-02-22T06:05:01;33.30;;;13.93;;
70806;SDS011;58882;52.170;5.386;2023-02-22T06:07:34;38.38;;;14.43;;
70806;SDS011;58882;52.170;5.386;2023-02-22T06:10:28;39.70;;;14.60;;
70806;SDS011;58882;52.170;5.386;2023-02-22T06:16:02;34.15;;;14.05;;
70806;SDS011;58882;52.170;5.386;2023-02-22T06:18:36;39.83;;;13.93;;
70806;SDS011;58882;52.170;5.386;2023-02-22T06:21:30;33.92;;;14.70;;
70806;SDS011;58882;52.170;5.386;2023-02-22T06:24:03;33.70;;;14.52;;
70806;SDS011;58882;52.170;5.386;2023-02-22T06:29:38;38.10;;;15.23;;
70806;SDS011;58882;52.170;5.386;2023-02-22T06:32:30;32.63;;;14.52;;
70806;SDS011;58882;52.170;5.386;2023-02-22T06:35:10;36.58;;;14.77;;
70806;SDS011;58882;52.170;5.386;2023-02-22T06:37:57;39.00;;;15.90;;
70806;SDS011;58882;52.170;5.386;2023-02-22T06:40:37;34.95;;;14.60;;
70806;SDS011;58882;52.170;5.386;2023-02-22T06:43:24;37.60;;;15.40;;
70806;SDS011;58882;52.170;5.386;2023-02-22T06:46:08;36.42;;;15.13;;
70806;SDS011;58882;52.170;5.386;2023-02-22T06:48:55;39.30;;;15.70;;
70806;SDS011;58882;52.170;5.386;2023-02-22T06:51:37;32.05;;;14.10;;
70806;SDS011;58882;52.170;5.386;2023-02-22T06:54:24;36.20;;;15.45;;
70806;SDS011;58882;52.170;5.386;2023-02-22T06:57:05;33.83;;;14.57;;
70806;SDS011;58882;52.170;5.386;2023-02-22T06:59:52;35.25;;;14.75;;
70806;SDS011;58882;52.170;5.386;2023-02-22T07:02:32;37.10;;;15.05;;
70806;SDS011;58882;52.170;5.386;2023-02-22T07:05:20;37.55;;;15.38;;
70806;SDS011;58882;52.170;5.386;2023-02-22T07:08:02;43.58;;;14.52;;
70806;SDS011;58882;52.170;5.386;2023-02-22T07:10:50;37.20;;;13.88;;
70806;SDS011;58882;52.170;5.386;2023-02-22T07:13:31;35.08;;;14.05;;
70806;SDS011;58882;52.170;5.386;2023-02-22T07:16:18;33.13;;;13.85;;
70806;SDS011;58882;52.170;5.386;2023-02-22T07:18:58;33.33;;;14.43;;
70806;SDS011;58882;52.170;5.386;2023-02-22T07:21:52;39.60;;;14.93;;
70806;SDS011;58882;52.170;5.386;2023-02-22T07:24:37;34.15;;;14.90;;
70806;SDS011;58882;52.170;5.386;2023-02-22T07:27:24;37.92;;;14.02;;
70806;SDS011;58882;52.170;5.386;2023-02-22T07:32:52;33.03;;;13.38;;
70806;SDS011;58882;52.170;5.386;2023-02-22T07:35:44;31.25;;;14.27;;
70806;SDS011;58882;52.170;5.386;2023-02-22T07:38:25;30.38;;;13.25;;
70806;SDS011;58882;52.170;5.386;2023-02-22T07:41:12;34.08;;;14.48;;
70806;SDS011;58882;52.170;5.386;2023-02-22T07:43:46;35.75;;;14.02;;
70806;SDS011;58882;52.170;5.386;2023-02-22T07:46:40;32.10;;;14.13;;
70806;SDS011;58882;52.170;5.386;2023-02-22T07:49:17;37.47;;;15.25;;
70806;SDS011;58882;52.170;5.386;2023-02-22T07:52:11;30.02;;;14.48;;
70806;SDS011;58882;52.170;5.386;2023-02-22T07:54:45;32.70;;;13.63;;
70806;SDS011;58882;52.170;5.386;2023-02-22T07:57:38;34.90;;;14.43;;
70806;SDS011;58882;52.170;5.386;2023-02-22T08:00:12;30.67;;;14.43;;
70806;SDS011;58882;52.170;5.386;2023-02-22T08:03:09;31.58;;;13.65;;
70806;SDS011;58882;52.170;5.386;2023-02-22T08:05:45;29.88;;;13.63;;
70806;SDS011;58882;52.170;5.386;2023-02-22T08:08:40;28.63;;;13.07;;
70806;SDS011;58882;52.170;5.386;2023-02-22T08:14:07;30.70;;;13.70;;
70806;SDS011;58882;52.170;5.386;2023-02-22T08:16:40;27.38;;;12.50;;
70806;SDS011;58882;52.170;5.386;2023-02-22T08:22:14;28.95;;;12.40;;
70806;SDS011;58882;52.170;5.386;2023-02-22T08:25:01;27.38;;;13.00;;
70806;SDS011;58882;52.170;5.386;2023-02-22T08:27:43;27.95;;;12.70;;
70806;SDS011;58882;52.170;5.386;2023-02-22T08:30:31;27.48;;;12.77;;
70806;SDS011;58882;52.170;5.386;2023-02-22T08:33:06;27.52;;;12.35;;
70806;SDS011;58882;52.170;5.386;2023-02-22T08:36:01;27.42;;;12.68;;
70806;SDS011;58882;52.170;5.386;2023-02-22T08:38:55;27.15;;;12.68;;
70806;SDS011;58882;52.170;5.386;2023-02-22T08:44:22;25.40;;;11.45;;
70806;SDS011;58882;52.170;5.386;2023-02-22T08:49:49;26.30;;;11.90;;
70806;SDS011;58882;52.170;5.386;2023-02-22T08:55:24;28.65;;;12.75;;
70806;SDS011;58882;52.170;5.386;2023-02-22T08:57:59;30.55;;;12.75;;
70806;SDS011;58882;52.170;5.386;2023-02-22T09:00:56;29.08;;;13.10;;
70806;SDS011;58882;52.170;5.386;2023-02-22T09:06:23;24.55;;;10.80;;
70806;SDS011;58882;52.170;5.386;2023-02-22T09:11:57;24.15;;;10.88;;
70806;SDS011;58882;52.170;5.386;2023-02-22T09:14:30;26.08;;;11.20;;
70806;SDS011;58882;52.170;5.386;2023-02-22T09:17:24;26.70;;;11.73;;
70806;SDS011;58882;52.170;5.386;2023-02-22T09:19:57;25.73;;;11.75;;
70806;SDS011;58882;52.170;5.386;2023-02-22T09:25:31;23.25;;;11.18;;
70806;SDS011;58882;52.170;5.386;2023-02-22T09:28:19;24.48;;;11.73;;
70806;SDS011;58882;52.170;5.386;2023-02-22T09:31:00;25.17;;;10.98;;
70806;SDS011;58882;52.170;5.386;2023-02-22T09:33:54;24.95;;;11.32;;
70806;SDS011;58882;52.170;5.386;2023-02-22T09:36:42;25.40;;;11.00;;
70806;SDS011;58882;52.170;5.386;2023-02-22T09:45:14;24.52;;;11.65;;
70806;SDS011;58882;52.170;5.386;2023-02-22T09:48:21;23.90;;;11.57;;
70806;SDS011;58882;52.170;5.386;2023-02-22T09:50:56;23.75;;;11.43;;
70806;SDS011;58882;52.170;5.386;2023-02-22T09:53:54;23.88;;;11.32;;
70806;SDS011;58882;52.170;5.386;2023-02-22T09:56:38;21.65;;;10.32;;
70806;SDS011;58882;52.170;5.386;2023-02-22T10:05:43;23.80;;;11.48;;
70806;SDS011;58882;52.170;5.386;2023-02-22T10:08:20;21.00;;;10.30;;
70806;SDS011;58882;52.170;5.386;2023-02-22T10:11:32;22.73;;;11.07;;
70806;SDS011;58882;52.170;5.386;2023-02-22T10:14:36;23.67;;;11.07;;
70806;SDS011;58882;52.170;5.386;2023-02-22T10:18:02;21.83;;;10.48;;
70806;SDS011;58882;52.170;5.386;2023-02-22T10:21:07;20.88;;;10.60;;
70806;SDS011;58882;52.170;5.386;2023-02-22T10:27:20;22.75;;;10.98;;
70806;SDS011;58882;52.170;5.386;2023-02-22T10:30:25;22.08;;;10.75;;
70806;SDS011;58882;52.170;5.386;2023-02-22T10:33:19;20.88;;;10.13;;
70806;SDS011;58882;52.170;5.386;2023-02-22T10:36:19;18.80;;;9.95;;
70806;SDS011;58882;52.170;5.386;2023-02-22T10:39:29;21.75;;;10.35;;
70806;SDS011;58882;52.170;5.386;2023-02-22T10:42:10;20.05;;;9.88;;
70806;SDS011;58882;52.170;5.386;2023-02-22T10:44:57;22.27;;;10.50;;
70806;SDS011;58882;52.170;5.386;2023-02-22T10:50:25;21.27;;;10.32;;
70806;SDS011;58882;52.170;5.386;2023-02-22T10:53:09;19.63;;;9.98;;
70806;SDS011;58882;52.170;5.386;2023-02-22T10:58:48;21.33;;;10.63;;
70806;SDS011;58882;52.170;5.386;2023-02-22T11:01:40;22.50;;;11.18;;
70806;SDS011;58882;52.170;5.386;2023-02-22T11:07:19;24.63;;;11.30;;
70806;SDS011;58882;52.170;5.386;2023-02-22T11:10:07;23.92;;;11.35;;
70806;SDS011;58882;52.170;5.386;2023-02-22T11:13:01;20.92;;;9.45;;
70806;SDS011;58882;52.170;5.386;2023-02-22T11:15:49;21.80;;;10.52;;
70806;SDS011;58882;52.170;5.386;2023-02-22T11:18:44;22.15;;;10.90;;
70806;SDS011;58882;52.170;5.386;2023-02-22T11:21:20;23.83;;;10.40;;
70806;SDS011;58882;52.170;5.386;2023-02-22T11:24:15;21.33;;;11.10;;
70806;SDS011;58882;52.170;5.386;2023-02-22T11:27:03;24.50;;;11.43;;
70806;SDS011;58882;52.170;5.386;2023-02-22T11:29:51;23.33;;;10.88;;
70806;SDS011;58882;52.170;5.386;2023-02-22T11:32:24;19.67;;;10.00;;
70806;SDS011;58882;52.170;5.386;2023-02-22T11:38:30;24.58;;;11.48;;
70806;SDS011;58882;52.170;5.386;2023-02-22T11:41:13;21.05;;;10.75;;
70806;SDS011;58882;52.170;5.386;2023-02-22T11:44:23;23.42;;;11.30;;
70806;SDS011;58882;52.170;5.386;2023-02-22T11:47:08;23.00;;;11.02;;
70806;SDS011;58882;52.170;5.386;2023-02-22T11:49:57;22.02;;;10.38;;
70806;SDS011;58882;52.170;5.386;2023-02-22T11:55:38;23.17;;;10.60;;
70806;SDS011;58882;52.170;5.386;2023-02-22T11:58:38;22.58;;;10.90;;
70806;SDS011;58882;52.170;5.386;2023-02-22T12:01:42;23.58;;;10.77;;
70806;SDS011;58882;52.170;5.386;2023-02-22T12:04:38;23.55;;;10.68;;
70806;SDS011;58882;52.170;5.386;2023-02-22T12:08:03;22.45;;;10.68;;
70806;SDS011;58882;52.170;5.386;2023-02-22T12:10:57;23.70;;;10.50;;
70806;SDS011;58882;52.170;5.386;2023-02-22T12:14:09;22.67;;;10.32;;
70806;SDS011;58882;52.170;5.386;2023-02-22T12:17:01;25.77;;;10.73;;
70806;SDS011;58882;52.170;5.386;2023-02-22T12:20:20;22.42;;;10.50;;
70806;SDS011;58882;52.170;5.386;2023-02-22T12:26:15;24.48;;;11.05;;
70806;SDS011;58882;52.170;5.386;2023-02-22T12:32:23;24.67;;;10.80;;
70806;SDS011;58882;52.170;5.386;2023-02-22T12:35:26;22.88;;;11.02;;
70806;SDS011;58882;52.170;5.386;2023-02-22T12:38:34;21.52;;;10.27;;
70806;SDS011;58882;52.170;5.386;2023-02-22T12:41:39;23.35;;;10.60;;
70806;SDS011;58882;52.170;5.386;2023-02-22T12:44:38;23.45;;;10.25;;
70806;SDS011;58882;52.170;5.386;2023-02-22T12:47:18;26.90;;;11.60;;
70806;SDS011;58882;52.170;5.386;2023-02-22T12:50:19;25.42;;;11.13;;
70806;SDS011;58882;52.170;5.386;2023-02-22T12:53:05;26.63;;;11.20;;
70806;SDS011;58882;52.170;5.386;2023-02-22T12:59:36;24.02;;;10.93;;
70806;SDS011;58882;52.170;5.386;2023-02-22T13:02:31;25.38;;;11.48;;
70806;SDS011;58882;52.170;5.386;2023-02-22T13:05:23;24.13;;;11.38;;
70806;SDS011;58882;52.170;5.386;2023-02-22T13:11:21;25.92;;;10.95;;
70806;SDS011;58882;52.170;5.386;2023-02-22T13:17:35;25.85;;;10.85;;
70806;SDS011;58882;52.170;5.386;2023-02-22T13:20:47;25.38;;;11.23;;
70806;SDS011;58882;52.170;5.386;2023-02-22T13:26:26;23.25;;;10.65;;
70806;SDS011;58882;52.170;5.386;2023-02-22T13:29:06;22.80;;;10.73;;
70806;SDS011;58882;52.170;5.386;2023-02-22T13:32:09;22.30;;;10.88;;
70806;SDS011;58882;52.170;5.386;2023-02-22T13:38:24;24.60;;;11.32;;
70806;SDS011;58882;52.170;5.386;2023-02-22T13:41:21;24.15;;;10.50;;
70806;SDS011;58882;52.170;5.386;2023-02-22T13:50:54;23.45;;;10.43;;
70806;SDS011;58882;52.170;5.386;2023-02-22T13:53:55;24.42;;;10.88;;
70806;SDS011;58882;52.170;5.386;2023-02-22T13:56:42;22.10;;;10.68;;
70806;SDS011;58882;52.170;5.386;2023-02-22T13:59:34;24.83;;;11.25;;
70806;SDS011;58882;52.170;5.386;2023-02-22T14:02:32;24.25;;;11.20;;
70806;SDS011;58882;52.170;5.386;2023-02-22T14:17:14;22.30;;;10.82;;
70806;SDS011;58882;52.170;5.386;2023-02-22T14:20:01;24.65;;;11.27;;
70806;SDS011;58882;52.170;5.386;2023-02-22T14:23:24;22.48;;;10.85;;
70806;SDS011;58882;52.170;5.386;2023-02-22T14:26:51;22.35;;;10.85;;
70806;SDS011;58882;52.170;5.386;2023-02-22T14:29:26;20.90;;;10.25;;
70806;SDS011;58882;52.170;5.386;2023-02-22T14:32:25;21.05;;;10.57;;
70806;SDS011;58882;52.170;5.386;2023-02-22T14:35:12;19.77;;;10.35;;
70806;SDS011;58882;52.170;5.386;2023-02-22T14:38:15;23.08;;;10.93;;
70806;SDS011;58882;52.170;5.386;2023-02-22T14:40:57;21.13;;;10.05;;
70806;SDS011;58882;52.170;5.386;2023-02-22T14:43:45;22.58;;;10.00;;
70806;SDS011;58882;52.170;5.386;2023-02-22T14:46:22;22.35;;;10.85;;
70806;SDS011;58882;52.170;5.386;2023-02-22T14:49:20;20.63;;;10.68;;
70806;SDS011;58882;52.170;5.386;2023-02-22T14:51:57;20.67;;;10.77;;
70806;SDS011;58882;52.170;5.386;2023-02-22T15:01:23;22.90;;;10.77;;
70806;SDS011;58882;52.170;5.386;2023-02-22T15:07:23;20.58;;;10.73;;
70806;SDS011;58882;52.170;5.386;2023-02-22T15:13:00;21.13;;;9.75;;
70806;SDS011;58882;52.170;5.386;2023-02-22T15:15:57;19.60;;;9.48;;
70806;SDS011;58882;52.170;5.386;2023-02-22T15:18:40;21.15;;;10.45;;
70806;SDS011;58882;52.170;5.386;2023-02-22T15:21:29;19.27;;;9.90;;
70806;SDS011;58882;52.170;5.386;2023-02-22T15:24:05;18.90;;;10.40;;
70806;SDS011;58882;52.170;5.386;2023-02-22T15:27:05;17.77;;;9.85;;
70806;SDS011;58882;52.170;5.386;2023-02-22T15:29:44;19.02;;;9.73;;
70806;SDS011;58882;52.170;5.386;2023-02-22T15:35:29;18.42;;;9.98;;
70806;SDS011;58882;52.170;5.386;2023-02-22T15:38:28;18.52;;;9.45;;
70806;SDS011;58882;52.170;5.386;2023-02-22T15:41:18;19.27;;;10.10;;
70806;SDS011;58882;52.170;5.386;2023-02-22T15:44:08;17.27;;;9.02;;
70806;SDS011;58882;52.170;5.386;2023-02-22T15:46:55;18.20;;;9.68;;
70806;SDS011;58882;52.170;5.386;2023-02-22T15:55:56;16.60;;;8.95;;
70806;SDS011;58882;52.170;5.386;2023-02-22T15:58:38;19.13;;;10.23;;
70806;SDS011;58882;52.170;5.386;2023-02-22T16:01:26;18.13;;;8.60;;
70806;SDS011;58882;52.170;5.386;2023-02-22T16:07:07;18.10;;;8.85;;
70806;SDS011;58882;52.170;5.386;2023-02-22T16:09:55;19.05;;;9.07;;
70806;SDS011;58882;52.170;5.386;2023-02-22T16:12:47;17.77;;;9.52;;
70806;SDS011;58882;52.170;5.386;2023-02-22T16:18:26;17.08;;;9.05;;
70806;SDS011;58882;52.170;5.386;2023-02-22T16:21:10;20.63;;;9.93;;
70806;SDS011;58882;52.170;5.386;2023-02-22T16:23:59;19.05;;;9.57;;
70806;SDS011;58882;52.170;5.386;2023-02-22T16:27:00;17.63;;;9.50;;
70806;SDS011;58882;52.170;5.386;2023-02-22T16:30:01;19.42;;;9.63;;
70806;SDS011;58882;52.170;5.386;2023-02-22T16:32:55;19.55;;;9.90;;
70806;SDS011;58882;52.170;5.386;2023-02-22T16:35:50;17.73;;;9.38;;
70806;SDS011;58882;52.170;5.386;2023-02-22T16:38:45;18.38;;;9.38;;
70806;SDS011;58882;52.170;5.386;2023-02-22T16:41:26;17.98;;;10.18;;
70806;SDS011;58882;52.170;5.386;2023-02-22T16:44:13;21.55;;;10.70;;
70806;SDS011;58882;52.170;5.386;2023-02-22T16:46:56;20.02;;;11.13;;
70806;SDS011;58882;52.170;5.386;2023-02-22T16:49:47;17.67;;;9.98;;
70806;SDS011;58882;52.170;5.386;2023-02-22T16:52:30;19.10;;;11.27;;
70806;SDS011;58882;52.170;5.386;2023-02-22T16:57:57;20.20;;;10.32;;
70806;SDS011;58882;52.170;5.386;2023-02-22T17:03:24;19.95;;;11.07;;
70806;SDS011;58882;52.170;5.386;2023-02-22T17:08:51;19.70;;;11.02;;
70806;SDS011;58882;52.170;5.386;2023-02-22T17:14:29;19.52;;;11.50;;
70806;SDS011;58882;52.170;5.386;2023-02-22T17:17:26;22.83;;;11.45;;
70806;SDS011;58882;52.170;5.386;2023-02-22T17:23:04;21.10;;;11.55;;
70806;SDS011;58882;52.170;5.386;2023-02-22T17:28:43;22.60;;;11.70;;
70806;SDS011;58882;52.170;5.386;2023-02-22T17:31:25;21.48;;;11.65;;
70806;SDS011;58882;52.170;5.386;2023-02-22T17:34:21;18.50;;;10.82;;
70806;SDS011;58882;52.170;5.386;2023-02-22T17:39:48;22.95;;;13.00;;
70806;SDS011;58882;52.170;5.386;2023-02-22T17:42:35;22.50;;;13.35;;
70806;SDS011;58882;52.170;5.386;2023-02-22T17:48:02;25.98;;;14.60;;
70806;SDS011;58882;52.170;5.386;2023-02-22T17:50:36;24.90;;;15.57;;
70806;SDS011;58882;52.170;5.386;2023-02-22T17:53:32;27.67;;;15.13;;
70806;SDS011;58882;52.170;5.386;2023-02-22T17:56:15;28.90;;;16.98;;
70806;SDS011;58882;52.170;5.386;2023-02-22T17:59:03;30.70;;;17.13;;
70806;SDS011;58882;52.170;5.386;2023-02-22T18:01:47;29.88;;;16.85;;
70806;SDS011;58882;52.170;5.386;2023-02-22T18:04:34;34.80;;;18.30;;
70806;SDS011;58882;52.170;5.386;2023-02-22T18:07:15;29.13;;;16.83;;
70806;SDS011;58882;52.170;5.386;2023-02-22T18:10:04;27.20;;;16.95;;
70806;SDS011;58882;52.170;5.386;2023-02-22T18:12:56;32.25;;;18.70;;
70806;SDS011;58882;52.170;5.386;2023-02-22T18:15:50;32.00;;;19.52;;
70806;SDS011;58882;52.170;5.386;2023-02-22T18:21:24;31.98;;;18.52;;
70806;SDS011;58882;52.170;5.386;2023-02-22T18:26:51;34.78;;;19.55;;
70806;SDS011;58882;52.170;5.386;2023-02-22T18:32:18;33.13;;;19.17;;
70806;SDS011;58882;52.170;5.386;2023-02-22T18:34:58;34.03;;;19.27;;
70806;SDS011;58882;52.170;5.386;2023-02-22T18:37:53;34.85;;;20.15;;
70806;SDS011;58882;52.170;5.386;2023-02-22T18:40:59;38.53;;;21.33;;
70806;SDS011;58882;52.170;5.386;2023-02-22T18:43:41;38.00;;;22.02;;
70806;SDS011;58882;52.170;5.386;2023-02-22T18:46:29;35.97;;;20.65;;
70806;SDS011;58882;52.170;5.386;2023-02-22T18:51:57;37.70;;;21.00;;
70806;SDS011;58882;52.170;5.386;2023-02-22T18:57:24;34.88;;;20.20;;
70806;SDS011;58882;52.170;5.386;2023-02-22T19:02:58;40.53;;;22.52;;
70806;SDS011;58882;52.170;5.386;2023-02-22T19:05:39;40.60;;;23.42;;
70806;SDS011;58882;52.170;5.386;2023-02-22T19:08:30;40.42;;;21.88;;
70806;SDS011;58882;52.170;5.386;2023-02-22T19:11:15;38.38;;;22.63;;
70806;SDS011;58882;52.170;5.386;2023-02-22T19:14:03;42.75;;;23.58;;
70806;SDS011;58882;52.170;5.386;2023-02-22T19:16:43;38.70;;;22.20;;
70806;SDS011;58882;52.170;5.386;2023-02-22T19:19:30;47.35;;;25.88;;
70806;SDS011;58882;52.170;5.386;2023-02-22T19:24:57;42.45;;;22.48;;
70806;SDS011;58882;52.170;5.386;2023-02-22T19:27:39;44.88;;;24.25;;
70806;SDS011;58882;52.170;5.386;2023-02-22T19:30:26;43.58;;;23.70;;
70806;SDS011;58882;52.170;5.386;2023-02-22T19:33:07;43.65;;;23.95;;
70806;SDS011;58882;52.170;5.386;2023-02-22T19:35:58;46.47;;;24.90;;
70806;SDS011;58882;52.170;5.386;2023-02-22T19:38:39;49.05;;;25.88;;
70806;SDS011;58882;52.170;5.386;2023-02-22T19:44:06;47.03;;;25.67;;
70806;SDS011;58882;52.170;5.386;2023-02-22T19:46:53;52.42;;;25.95;;
70806;SDS011;58882;52.170;5.386;2023-02-22T19:49:34;46.80;;;24.13;;
70806;SDS011;58882;52.170;5.386;2023-02-22T19:52:29;48.25;;;24.92;;
70806;SDS011;58882;52.170;5.386;2023-02-22T19:57:56;50.95;;;26.13;;
70806;SDS011;58882;52.170;5.386;2023-02-22T20:00:36;49.53;;;25.77;;
70806;SDS011;58882;52.170;5.386;2023-02-22T20:03:23;48.25;;;25.55;;
70806;SDS011;58882;52.170;5.386;2023-02-22T20:06:04;52.17;;;25.67;;
70806;SDS011;58882;52.170;5.386;2023-02-22T20:09:02;49.03;;;25.55;;
70806;SDS011;58882;52.170;5.386;2023-02-22T20:11:43;47.42;;;25.33;;
70806;SDS011;58882;52.170;5.386;2023-02-22T20:14:31;49.45;;;25.80;;
70806;SDS011;58882;52.170;5.386;2023-02-22T20:17:12;47.03;;;25.33;;
70806;SDS011;58882;52.170;5.386;2023-02-22T20:22:40;50.60;;;26.02;;
70806;SDS011;58882;52.170;5.386;2023-02-22T20:25:34;48.88;;;24.90;;
70806;SDS011;58882;52.170;5.386;2023-02-22T20:28:14;47.92;;;25.48;;